Time;durP1;ratioP1;P1;durP2;ratioP2;P2;SDS_P1;SDS_P2;PMS_P1;PMS_P2;Temp;Humidity;BMP_temperature;BMP_pressure;BME280_temperature;BME280_humidity;BME280_pressure;Samples;Min_cycle;Max_cycle;Signal;HPM_P1;HPM_P2
2022/07/07 00:00:58;;;;;;;3.45;2.67;;;22.30;62.10;;;;;;6114251;28;80513;-67
2022/07/07 00:04:00;;;;;;;5.30;2.20;;;22.50;61.50;;;;;;6114696;28;80416;-67
2022/07/07 00:07:01;;;;;;;5.22;2.67;;;22.80;61.70;;;;;;6115620;28;80435;-67
2022/07/07 00:10:01;;;;;;;5.07;2.40;;;23.10;60.30;;;;;;6118988;28;80460;-67
2022/07/07 00:13:02;;;;;;;3.85;2.30;;;23.30;59.80;;;;;;6114739;28;80382;-66
2022/07/07 00:16:02;;;;;;;5.95;2.60;;;23.40;59.10;;;;;;6114494;28;80592;-66
2022/07/07 00:19:03;;;;;;;4.60;2.28;;;23.40;58.80;;;;;;6112665;28;80464;-66
2022/07/07 00:22:04;;;;;;;6.15;2.20;;;23.30;59.20;;;;;;6113845;28;80547;-66
2022/07/07 00:25:04;;;;;;;3.72;2.67;;;23.40;59.30;;;;;;6114448;28;80382;-66
2022/07/07 00:28:05;;;;;;;4.53;2.55;;;23.50;58.90;;;;;;6114124;28;80375;-67
2022/07/07 00:31:05;;;;;;;4.55;2.72;;;23.70;58.70;;;;;;6113612;28;81733;-67
2022/07/07 00:34:06;;;;;;;5.70;2.70;;;23.80;58.50;;;;;;6113802;28;80305;-67
2022/07/07 00:37:06;;;;;;;5.18;2.30;;;23.90;58.10;;;;;;6106071;28;80985;-67
2022/07/07 00:40:07;;;;;;;4.53;2.65;;;23.60;58.30;;;;;;6111829;28;80928;-67
2022/07/07 00:43:08;;;;;;;5.45;2.15;;;23.50;58.60;;;;;;6113550;28;81062;-67
2022/07/07 00:46:08;;;;;;;4.65;2.60;;;23.70;58.50;;;;;;6113744;28;80842;-67
2022/07/07 00:49:09;;;;;;;3.92;2.38;;;23.80;58.40;;;;;;6121926;28;80500;-66
2022/07/07 00:52:09;;;;;;;4.05;2.50;;;23.90;58.20;;;;;;6118945;28;80569;-67
2022/07/07 00:55:10;;;;;;;3.00;2.55;;;23.90;58.10;;;;;;6113231;28;80098;-66
2022/07/07 00:58:10;;;;;;;4.07;2.42;;;23.90;57.90;;;;;;6113351;28;81686;-67
2022/07/07 01:01:10;;;;;;;12.10;2.53;;;23.90;58.00;;;;;;6111900;28;80418;-67
2022/07/07 01:04:11;;;;;;;2.40;2.15;;;23.90;58.10;;;;;;6113332;28;80607;-68
2022/07/07 01:07:11;;;;;;;2.55;2.30;;;23.90;58.10;;;;;;6113068;28;80864;-67
2022/07/07 01:10:12;;;;;;;6.95;2.45;;;23.90;58.00;;;;;;6112513;28;86813;-68
2022/07/07 01:13:13;;;;;;;3.85;2.63;;;24.00;58.10;;;;;;6118340;28;83743;-67
2022/07/07 01:16:13;;;;;;;5.43;2.75;;;24.00;58.10;;;;;;6113036;28;80566;-67
2022/07/07 01:19:14;;;;;;;6.00;2.55;;;24.10;57.90;;;;;;6112994;28;80040;-67
2022/07/07 01:22:14;;;;;;;5.45;2.42;;;24.10;57.60;;;;;;6112579;28;81454;-68
2022/07/07 01:25:15;;;;;;;2.72;2.08;;;24.10;57.70;;;;;;6112705;28;80120;-68
2022/07/07 01:28:15;;;;;;;4.13;2.45;;;24.10;57.60;;;;;;6112824;28;80849;-68
2022/07/07 01:31:16;;;;;;;4.13;2.35;;;24.20;57.60;;;;;;6112306;28;80588;-68
2022/07/07 01:34:16;;;;;;;3.67;2.25;;;24.30;57.70;;;;;;6112932;28;80754;-67
2022/07/07 01:37:16;;;;;;;7.70;2.38;;;24.30;57.30;;;;;;6116252;28;80413;-67
2022/07/07 01:40:17;;;;;;;7.43;2.45;;;24.20;57.10;;;;;;6112464;28;81155;-68
2022/07/07 01:43:17;;;;;;;2.40;2.00;;;24.10;57.10;;;;;;6112188;28;80886;-67
2022/07/07 01:46:18;;;;;;;3.50;2.45;;;24.10;57.10;;;;;;6112609;28;80278;-67
2022/07/07 01:49:18;;;;;;;2.83;2.15;;;24.20;57.30;;;;;;6126820;28;80377;-67
2022/07/07 01:52:19;;;;;;;3.17;2.10;;;24.20;57.10;;;;;;6112174;28;81333;-67
2022/07/07 01:55:19;;;;;;;5.15;2.53;;;24.30;57.00;;;;;;6112273;28;80548;-68
2022/07/07 01:58:20;;;;;;;2.97;2.17;;;24.30;57.00;;;;;;6112261;28;80208;-66
2022/07/07 02:01:20;;;;;;;3.42;2.50;;;24.20;56.60;;;;;;6111942;28;80282;-67
2022/07/07 02:04:21;;;;;;;3.60;2.28;;;23.90;56.70;;;;;;6111939;28;80400;-67
2022/07/07 02:07:22;;;;;;;5.70;2.80;;;23.50;57.60;;;;;;6105432;28;82130;-67
2022/07/07 02:13:42;;;;;;;4.50;2.50;;;22.60;59.30;;;;;;6114152;28;80382;-67
2022/07/07 02:16:42;;;;;;;2.90;2.30;;;22.70;59.30;;;;;;6110915;28;80966;-67
2022/07/07 02:19:43;;;;;;;4.63;2.35;;;22.50;59.30;;;;;;6107711;28;80548;-67
2022/07/07 02:22:43;;;;;;;4.28;2.55;;;22.30;59.90;;;;;;6111662;28;80627;-68
2022/07/07 02:25:44;;;;;;;3.28;2.53;;;22.30;59.60;;;;;;6110195;28;81861;-68
2022/07/07 02:28:45;;;;;;;3.63;2.28;;;22.40;59.30;;;;;;6111539;28;80459;-68
2022/07/07 02:31:45;;;;;;;3.38;2.20;;;22.30;59.20;;;;;;6112143;28;81029;-67
2022/07/07 02:34:46;;;;;;;5.45;2.40;;;22.20;59.40;;;;;;6111443;28;80033;-67
2022/07/07 02:37:46;;;;;;;6.25;2.42;;;22.30;59.30;;;;;;6109886;28;80758;-66
2022/07/07 02:40:47;;;;;;;3.50;2.30;;;22.40;59.10;;;;;;6111188;28;80018;-67
2022/07/07 02:43:47;;;;;;;5.38;2.70;;;22.50;58.70;;;;;;6110373;28;80445;-67
2022/07/07 02:46:48;;;;;;;8.82;3.03;;;22.60;58.60;;;;;;6114516;28;80852;-67
2022/07/07 02:49:48;;;;;;;3.03;2.17;;;22.70;58.40;;;;;;6119719;28;81515;-68
2022/07/07 02:52:48;;;;;;;2.25;1.80;;;22.80;58.20;;;;;;6111465;28;80064;-67
2022/07/07 02:55:49;;;;;;;5.75;2.58;;;23.00;58.00;;;;;;6111323;28;80640;-67
2022/07/07 02:58:49;;;;;;;2.83;2.17;;;23.30;57.60;;;;;;6107634;28;81743;-68
2022/07/07 03:01:50;;;;;;;3.72;2.10;;;23.30;57.40;;;;;;6106015;28;81388;-68
2022/07/07 03:04:50;;;;;;;7.97;2.47;;;23.40;57.20;;;;;;6106941;28;80615;-67
2022/07/07 03:07:51;;;;;;;4.38;2.72;;;23.40;56.90;;;;;;6098360;28;81546;-67
2022/07/07 03:10:51;;;;;;;4.93;2.50;;;23.20;57.30;;;;;;6107785;28;80694;-67
2022/07/07 03:13:52;;;;;;;4.88;3.00;;;23.30;57.20;;;;;;6111383;28;80941;-66
2022/07/07 03:16:52;;;;;;;8.07;2.25;;;23.30;57.10;;;;;;6118253;28;80803;-67
2022/07/07 03:19:53;;;;;;;6.30;2.55;;;23.50;57.20;;;;;;6103248;28;80714;-67
2022/07/07 03:22:53;;;;;;;7.60;2.88;;;23.10;57.00;;;;;;6110933;28;80238;-67
2022/07/07 03:25:54;;;;;;;4.07;2.40;;;23.00;57.40;;;;;;6113959;28;83303;-69
2022/07/07 03:28:54;;;;;;;4.28;2.50;;;23.20;57.30;;;;;;6109897;28;81829;-69
2022/07/07 03:31:55;;;;;;;3.90;2.67;;;23.40;57.30;;;;;;6110822;28;80810;-69
2022/07/07 03:34:55;;;;;;;4.32;2.83;;;23.50;57.10;;;;;;6110957;28;81207;-68
2022/07/07 03:37:56;;;;;;;3.00;2.45;;;23.60;57.10;;;;;;6107872;28;80648;-69
2022/07/07 03:40:56;;;;;;;5.63;2.63;;;23.70;56.90;;;;;;6103007;28;81012;-67
2022/07/07 03:43:57;;;;;;;6.35;3.03;;;23.70;56.90;;;;;;6108046;28;80790;-68
2022/07/07 03:46:57;;;;;;;6.45;3.08;;;23.80;56.90;;;;;;6099938;28;80270;-68
2022/07/07 03:49:58;;;;;;;5.95;2.70;;;23.90;56.80;;;;;;6107911;28;80580;-74
2022/07/07 03:52:59;;;;;;;3.25;2.40;;;24.00;56.60;;;;;;6105015;28;83421;-67
2022/07/07 03:55:59;;;;;;;2.70;2.13;;;24.10;56.70;;;;;;6108419;28;81793;-71
2022/07/07 03:59:00;;;;;;;4.88;2.40;;;24.10;56.60;;;;;;6107413;28;80065;-67
2022/07/07 04:02:00;;;;;;;4.00;2.53;;;24.20;56.50;;;;;;6105859;28;82810;-64
2022/07/07 04:05:01;;;;;;;6.68;2.20;;;24.20;56.60;;;;;;6107278;28;80895;-73
2022/07/07 04:08:01;;;;;;;4.95;2.05;;;24.30;56.60;;;;;;6109752;28;80589;-67
2022/07/07 04:11:02;;;;;;;2.95;2.28;;;24.30;56.50;;;;;;6103601;28;80616;-66
2022/07/07 04:14:03;;;;;;;2.40;2.20;;;24.40;56.60;;;;;;6103868;28;81125;-65
2022/07/07 04:17:04;;;;;;;4.53;2.47;;;24.40;56.60;;;;;;6104692;28;80395;-65
2022/07/07 04:20:04;;;;;;;4.68;2.50;;;24.50;56.50;;;;;;6101888;28;81655;-65
2022/07/07 04:23:05;;;;;;;3.38;2.92;;;24.50;56.90;;;;;;6109119;28;80619;-68
2022/07/07 04:26:05;;;;;;;4.93;2.58;;;24.60;56.80;;;;;;6113177;28;80540;-69
2022/07/07 04:29:06;;;;;;;4.05;2.58;;;24.60;57.00;;;;;;6113442;28;80552;-73
2022/07/07 04:32:06;;;;;;;7.55;3.10;;;24.70;57.20;;;;;;6112752;28;80883;-65
2022/07/07 04:35:07;;;;;;;4.60;2.30;;;24.60;57.50;;;;;;6100481;28;80439;-66
2022/07/07 04:38:07;;;;;;;3.88;2.35;;;24.70;57.30;;;;;;6106793;28;81781;-66
2022/07/07 04:41:08;;;;;;;5.28;2.25;;;24.70;57.10;;;;;;6112465;28;81476;-65
2022/07/07 04:44:08;;;;;;;5.82;2.55;;;24.70;57.10;;;;;;6112710;28;80508;-69
2022/07/07 04:47:09;;;;;;;8.35;2.40;;;24.70;57.30;;;;;;6118080;28;79965;-70
2022/07/07 04:50:09;;;;;;;4.70;2.67;;;24.80;57.30;;;;;;6112331;28;81249;-63
2022/07/07 04:53:10;;;;;;;11.90;2.47;;;24.80;57.30;;;;;;6105591;28;80939;-66
2022/07/07 04:56:10;;;;;;;8.55;2.40;;;24.80;57.50;;;;;;6112106;28;81071;-78
2022/07/07 04:59:11;;;;;;;7.93;2.85;;;24.90;57.40;;;;;;6107137;28;80325;-64
2022/07/07 05:02:11;;;;;;;9.73;2.60;;;24.80;57.10;;;;;;6101341;28;80871;-64
2022/07/07 05:05:13;;;;;;;13.57;2.72;;;24.80;57.10;;;;;;6109623;28;81002;-64
2022/07/07 05:08:13;;;;;;;17.33;3.45;;;24.80;56.90;;;;;;6101129;28;80394;-64
2022/07/07 05:11:14;;;;;;;4.70;2.80;;;24.80;56.50;;;;;;6111978;28;81091;-64
2022/07/07 05:14:14;;;;;;;4.05;2.35;;;24.80;56.30;;;;;;6110969;28;80376;-64
2022/07/07 05:17:15;;;;;;;6.78;2.08;;;24.70;56.10;;;;;;6111406;28;81966;-64
2022/07/07 05:20:15;;;;;;;4.05;2.50;;;24.70;56.20;;;;;;6112041;28;80421;-64
2022/07/07 05:23:15;;;;;;;3.80;2.75;;;24.70;56.00;;;;;;6111616;28;80336;-64
2022/07/07 05:26:16;;;;;;;4.07;2.25;;;24.70;56.00;;;;;;6112391;28;80677;-63
2022/07/07 05:29:17;;;;;;;8.30;2.60;;;24.70;56.00;;;;;;6111757;28;80515;-64
2022/07/07 05:32:17;;;;;;;5.47;3.03;;;24.60;56.20;;;;;;6114473;28;81546;-64
2022/07/07 05:35:17;;;;;;;4.45;3.00;;;24.40;56.30;;;;;;6112670;28;80447;-65
2022/07/07 05:38:18;;;;;;;4.40;2.75;;;24.40;56.50;;;;;;6114384;28;80408;-65
2022/07/07 05:41:18;;;;;;;6.47;3.17;;;24.30;56.40;;;;;;6118396;28;81588;-65
2022/07/07 05:44:19;;;;;;;4.63;2.88;;;23.70;57.60;;;;;;6115366;28;81165;-64
2022/07/07 05:47:19;;;;;;;7.28;2.90;;;23.90;57.50;;;;;;6106842;28;82506;-64
2022/07/07 05:50:20;;;;;;;4.40;2.85;;;23.90;57.20;;;;;;6112276;28;80385;-65
2022/07/07 05:53:21;;;;;;;6.40;3.10;;;23.80;57.70;;;;;;6111112;28;80710;-66
2022/07/07 05:56:22;;;;;;;4.50;3.15;;;23.60;58.30;;;;;;6108909;28;80712;-66
2022/07/07 05:59:23;;;;;;;6.53;3.10;;;23.20;59.50;;;;;;6106735;28;81918;-66
2022/07/07 06:02:23;;;;;;;9.55;3.25;;;23.30;59.20;;;;;;6108978;28;80499;-66
2022/07/07 06:05:24;;;;;;;4.68;2.75;;;23.50;58.80;;;;;;6109658;28;80698;-67
2022/07/07 06:08:25;;;;;;;3.70;2.60;;;23.70;58.50;;;;;;6098114;28;80479;-66
2022/07/07 06:11:25;;;;;;;6.88;2.97;;;23.90;58.20;;;;;;6112060;28;81256;-66
2022/07/07 06:14:26;;;;;;;6.72;3.00;;;24.10;57.80;;;;;;6111738;28;80407;-64
2022/07/07 06:17:27;;;;;;;8.38;3.55;;;24.20;57.50;;;;;;6110569;28;80863;-66
2022/07/07 06:20:27;;;;;;;8.40;2.78;;;24.10;57.20;;;;;;6112461;28;80888;-76
2022/07/07 06:23:28;;;;;;;7.15;3.47;;;24.10;57.60;;;;;;6113100;28;81043;-72
2022/07/07 06:26:28;;;;;;;8.00;3.35;;;24.20;57.40;;;;;;6111557;28;80431;-67
2022/07/07 06:29:29;;;;;;;7.63;2.83;;;24.30;57.30;;;;;;6110354;28;80323;-66
2022/07/07 06:32:29;;;;;;;8.98;3.10;;;24.40;56.90;;;;;;6110679;28;81032;-65
2022/07/07 06:35:30;;;;;;;11.52;3.40;;;24.40;56.80;;;;;;6105300;28;82097;-67
2022/07/07 06:38:30;;;;;;;7.65;2.88;;;24.40;56.80;;;;;;6103413;28;81095;-67
2022/07/07 06:41:31;;;;;;;9.82;3.25;;;24.40;56.70;;;;;;6110968;28;80150;-66
2022/07/07 06:44:31;;;;;;;8.07;2.88;;;24.50;56.70;;;;;;6100665;28;81116;-66
2022/07/07 06:47:32;;;;;;;8.02;3.35;;;24.60;56.70;;;;;;6111797;28;80499;-71
2022/07/07 06:50:32;;;;;;;5.00;3.25;;;24.60;56.40;;;;;;6112320;28;80449;-78
2022/07/07 06:53:33;;;;;;;9.70;3.50;;;24.60;56.00;;;;;;6094560;28;81656;-77
2022/07/07 06:56:33;;;;;;;8.68;2.88;;;24.60;55.80;;;;;;6111392;28;80947;-67
2022/07/07 06:59:34;;;;;;;8.13;3.40;;;24.70;55.80;;;;;;6109572;28;80883;-66
2022/07/07 07:02:34;;;;;;;11.90;2.88;;;24.70;55.80;;;;;;6111430;28;80750;-68
2022/07/07 07:05:35;;;;;;;4.63;2.55;;;24.70;55.50;;;;;;6109986;28;80109;-65
2022/07/07 07:08:35;;;;;;;6.78;2.95;;;24.70;55.50;;;;;;6108217;28;80330;-66
2022/07/07 07:11:36;;;;;;;10.10;2.90;;;24.70;55.40;;;;;;6119931;28;80477;-66
2022/07/07 07:14:37;;;;;;;6.00;3.30;;;24.70;55.40;;;;;;6109220;28;81069;-64
2022/07/07 07:17:37;;;;;;;4.90;2.88;;;24.70;55.40;;;;;;6110434;28;81026;-62
2022/07/07 07:20:40;;;;;;;7.40;2.92;;;24.80;55.40;;;;;;6110405;28;80603;-62
2022/07/07 07:23:40;;;;;;;6.45;3.13;;;24.70;55.90;;;;;;6103618;28;81075;-66
2022/07/07 07:26:41;;;;;;;5.63;2.80;;;24.70;55.20;;;;;;6110250;28;79945;-65
2022/07/07 07:29:41;;;;;;;12.40;3.28;;;24.80;54.30;;;;;;6108468;28;80567;-65
2022/07/07 07:32:42;;;;;;;6.88;2.97;;;24.80;54.30;;;;;;6115182;28;80696;-64
2022/07/07 07:35:42;;;;;;;7.63;3.00;;;24.90;54.20;;;;;;6109106;28;81901;-64
2022/07/07 07:38:44;;;;;;;7.28;3.40;;;24.90;54.20;;;;;;6109723;28;80745;-65
2022/07/07 07:41:45;;;;;;;7.25;3.00;;;24.50;54.20;;;;;;6101228;28;81192;-63
2022/07/07 07:48:05;;;;;;;9.48;3.70;;;24.60;55.20;;;;;;6107431;28;81733;-63
2022/07/07 07:51:05;;;;;;;8.35;3.25;;;24.70;54.20;;;;;;6106420;28;80661;-63
2022/07/07 07:54:05;;;;;;;6.18;2.85;;;24.80;54.00;;;;;;6101733;28;82357;-63
2022/07/07 07:57:06;;;;;;;3.45;2.42;;;24.80;54.80;;;;;;6108154;28;81450;-63
2022/07/07 08:00:06;;;;;;;7.55;2.90;;;24.90;54.10;;;;;;6099292;28;80403;-74
2022/07/07 08:03:12;;;;;;;7.78;3.13;;;24.80;52.90;;;;;;6107648;28;81850;-66
2022/07/07 08:06:12;;;;;;;4.65;2.42;;;24.90;53.40;;;;;;6111700;28;80495;-65
2022/07/07 08:09:13;;;;;;;6.45;3.17;;;24.90;53.60;;;;;;6100535;28;80543;-65
2022/07/07 08:12:13;;;;;;;8.25;2.83;;;25.00;53.40;;;;;;6103738;28;81531;-65
2022/07/07 08:15:14;;;;;;;5.20;2.70;;;25.00;52.90;;;;;;6107286;28;83654;-63
2022/07/07 08:18:14;;;;;;;6.85;2.67;;;24.90;50.90;;;;;;6105366;28;87369;-64
2022/07/07 08:21:15;;;;;;;9.70;2.50;;;24.90;51.70;;;;;;6105220;28;80368;-66
2022/07/07 08:24:15;;;;;;;2.80;2.30;;;24.90;52.10;;;;;;6100509;28;80745;-67
2022/07/07 08:27:16;;;;;;;5.53;2.22;;;25.00;51.80;;;;;;6103000;28;80348;-67
2022/07/07 08:30:17;;;;;;;5.88;2.85;;;25.10;51.80;;;;;;6106317;28;81415;-63
2022/07/07 08:33:18;;;;;;;4.97;2.40;;;25.10;51.90;;;;;;6104663;28;82002;-68
2022/07/07 08:36:18;;;;;;;6.35;2.08;;;25.10;51.20;;;;;;6107131;28;81884;-65
2022/07/07 08:39:19;;;;;;;5.03;2.60;;;24.80;51.70;;;;;;6111278;28;80282;-66
2022/07/07 08:42:19;;;;;;;8.52;2.47;;;24.80;50.70;;;;;;6109602;28;82848;-61
2022/07/07 08:45:20;;;;;;;3.67;2.13;;;24.80;51.60;;;;;;6113355;28;80314;-71
2022/07/07 08:48:20;;;;;;;5.72;2.30;;;24.90;51.40;;;;;;6113870;28;81034;-74
2022/07/07 08:51:21;;;;;;;3.33;2.50;;;25.00;50.80;;;;;;6110584;28;80421;-74
2022/07/07 08:54:21;;;;;;;5.32;2.40;;;25.10;50.60;;;;;;6106337;28;80602;-66
2022/07/07 08:57:22;;;;;;;6.85;4.00;;;25.10;50.60;;;;;;6109699;28;81493;-66
2022/07/07 09:00:22;;;;;;;5.68;2.50;;;25.00;49.20;;;;;;6110336;28;83119;-67
2022/07/07 09:03:23;;;;;;;6.60;3.47;;;24.90;49.50;;;;;;6109886;28;80390;-62
2022/07/07 09:06:23;;;;;;;19.58;3.20;;;25.00;49.30;;;;;;6109830;28;80391;-67
2022/07/07 09:09:24;;;;;;;6.45;2.63;;;25.10;50.40;;;;;;6103671;28;80387;-66
2022/07/07 09:12:24;;;;;;;5.07;2.70;;;25.10;48.80;;;;;;6110842;28;80642;-72
2022/07/07 09:15:25;;;;;;;5.90;2.10;;;25.20;48.90;;;;;;6112547;28;80867;-69
2022/07/07 09:18:25;;;;;;;3.83;2.20;;;25.30;49.20;;;;;;6107947;28;81910;-65
2022/07/07 09:21:26;;;;;;;6.78;3.42;;;25.30;49.20;;;;;;6104928;28;81227;-64
2022/07/07 09:24:27;;;;;;;5.05;2.33;;;25.40;50.10;;;;;;6111593;28;80806;-65
2022/07/07 09:27:28;;;;;;;5.43;2.50;;;25.30;48.50;;;;;;6109537;28;80375;-66
2022/07/07 09:30:28;;;;;;;6.40;2.15;;;25.40;49.00;;;;;;6099860;28;80779;-67
2022/07/07 09:33:29;;;;;;;6.10;2.13;;;25.40;49.70;;;;;;6094273;28;80773;-70
2022/07/07 09:39:49;;;;;;;6.88;2.25;;;25.40;49.80;;;;;;6092733;28;80527;-65
2022/07/07 09:42:49;;;;;;;5.50;2.95;;;25.50;51.60;;;;;;6089629;28;80855;-65
2022/07/07 09:45:50;;;;;;;4.75;2.40;;;25.50;52.50;;;;;;6094734;28;81233;-64
2022/07/07 09:48:50;;;;;;;2.67;1.92;;;25.50;50.30;;;;;;6089849;28;80865;-74
2022/07/07 09:51:51;;;;;;;7.07;2.50;;;25.40;49.10;;;;;;6101294;28;80391;-75
2022/07/07 09:54:52;;;;;;;4.30;2.15;;;25.30;47.90;;;;;;6108132;28;81771;-77
2022/07/07 09:57:52;;;;;;;3.47;1.85;;;25.40;48.60;;;;;;6098209;28;80476;-67
2022/07/07 10:00:53;;;;;;;3.78;1.92;;;25.50;48.70;;;;;;6100124;28;81011;-67
2022/07/07 10:03:54;;;;;;;3.05;2.00;;;25.50;48.00;;;;;;6109313;28;80562;-67
2022/07/07 10:06:54;;;;;;;3.35;2.20;;;25.50;47.90;;;;;;6102221;28;80488;-67
2022/07/07 10:09:55;;;;;;;3.13;2.25;;;25.50;49.30;;;;;;6100896;28;80074;-67
2022/07/07 10:12:55;;;;;;;5.35;2.30;;;25.50;47.90;;;;;;6106032;28;80922;-66
2022/07/07 10:15:56;;;;;;;5.90;2.13;;;25.40;47.00;;;;;;6106229;28;81495;-66
2022/07/07 10:18:56;;;;;;;7.53;2.10;;;25.30;47.30;;;;;;6092968;28;81693;-67
2022/07/07 10:21:57;;;;;;;7.13;2.00;;;25.30;46.70;;;;;;6103744;28;80644;-65
2022/07/07 10:24:57;;;;;;;3.85;1.95;;;25.40;47.80;;;;;;6098769;28;81100;-66
2022/07/07 10:27:58;;;;;;;4.65;2.22;;;25.50;48.10;;;;;;6088747;28;81549;-66
2022/07/07 10:30:58;;;;;;;3.78;2.00;;;25.50;46.80;;;;;;6101300;28;81093;-68
2022/07/07 10:33:59;;;;;;;7.35;2.33;;;25.50;46.00;;;;;;6107253;28;80245;-66
2022/07/07 10:37:00;;;;;;;9.48;2.35;;;25.40;45.20;;;;;;6102854;28;81510;-66
2022/07/07 10:40:01;;;;;;;3.17;1.98;;;25.20;44.80;;;;;;6108875;28;80266;-65
2022/07/07 10:43:01;;;;;;;8.23;3.80;;;25.10;45.20;;;;;;6106176;28;81203;-66
2022/07/07 10:46:02;;;;;;;4.78;2.30;;;25.10;46.30;;;;;;6110256;28;80703;-66
2022/07/07 10:49:02;;;;;;;3.67;2.17;;;25.10;46.20;;;;;;6097767;28;80579;-73
2022/07/07 10:52:03;;;;;;;4.90;1.92;;;25.10;46.30;;;;;;6093448;28;81635;-66
2022/07/07 10:55:03;;;;;;;3.35;2.10;;;25.10;46.50;;;;;;6101734;28;81235;-67
2022/07/07 10:58:04;;;;;;;3.70;2.00;;;25.10;46.30;;;;;;6104897;28;80857;-67
2022/07/07 11:01:04;;;;;;;3.28;2.15;;;25.10;46.50;;;;;;6108511;28;81966;-68
2022/07/07 11:04:05;;;;;;;4.05;2.22;;;25.10;47.10;;;;;;6110740;28;80566;-66
2022/07/07 11:07:05;;;;;;;7.22;3.25;;;25.30;47.20;;;;;;6102197;28;80240;-66
2022/07/07 11:10:06;;;;;;;4.82;2.70;;;25.40;47.30;;;;;;6107962;28;85199;-63
2022/07/07 11:13:06;;;;;;;2.70;2.08;;;25.50;47.20;;;;;;6111748;28;81986;-67
2022/07/07 11:16:07;;;;;;;6.10;2.75;;;25.50;47.40;;;;;;6113998;28;81226;-66
2022/07/07 11:19:07;;;;;;;4.53;2.20;;;25.60;47.70;;;;;;6112045;28;82613;-66
2022/07/07 11:22:08;;;;;;;3.00;2.25;;;25.70;47.60;;;;;;6107935;28;81080;-67
2022/07/07 11:25:08;;;;;;;4.47;2.25;;;25.70;47.60;;;;;;6107160;28;80369;-64
2022/07/07 11:28:09;;;;;;;3.75;2.10;;;25.70;48.20;;;;;;6103275;28;81287;-65
2022/07/07 11:31:09;;;;;;;2.35;2.15;;;25.70;47.80;;;;;;6110932;28;80478;-66
2022/07/07 11:34:10;;;;;;;12.13;2.20;;;25.70;46.70;;;;;;6112198;28;81379;-64
2022/07/07 11:37:10;;;;;;;13.18;2.10;;;25.70;46.80;;;;;;6113292;28;80842;-71
2022/07/07 11:40:11;;;;;;;5.68;2.05;;;25.70;46.90;;;;;;6114363;28;81255;-70
2022/07/07 11:43:12;;;;;;;4.45;2.58;;;25.70;47.00;;;;;;6118821;28;80633;-72
2022/07/07 11:46:13;;;;;;;3.40;2.33;;;25.70;46.60;;;;;;6116315;28;81343;-70
2022/07/07 11:49:13;;;;;;;8.20;2.65;;;25.70;46.50;;;;;;6100510;28;80415;-71
2022/07/07 11:52:15;;;;;;;4.72;2.20;;;25.70;46.20;;;;;;6115176;28;81813;-71
2022/07/07 11:55:18;;;;;;;3.60;2.25;;;25.70;46.90;;;;;;6118262;28;80355;-71
2022/07/07 11:58:18;;;;;;;5.00;2.80;;;25.70;46.90;;;;;;6108504;28;84988;-70
2022/07/07 12:01:19;;;;;;;3.63;2.38;;;25.70;47.00;;;;;;6111685;28;80679;-66
2022/07/07 12:04:22;;;;;;;6.28;2.70;;;25.70;47.10;;;;;;6105073;28;80413;-66
2022/07/07 12:07:22;;;;;;;5.20;2.00;;;25.70;46.50;;;;;;6107148;28;83612;-66
2022/07/07 12:10:23;;;;;;;9.80;2.10;;;25.60;46.70;;;;;;6113038;28;81537;-73
2022/07/07 12:13:23;;;;;;;3.22;2.33;;;25.60;47.10;;;;;;6114131;28;80718;-76
2022/07/07 12:16:24;;;;;;;5.95;2.30;;;25.60;46.70;;;;;;6114928;28;81132;-74
2022/07/07 12:19:24;;;;;;;12.57;2.42;;;25.50;46.40;;;;;;6109723;28;80440;-73
2022/07/07 12:22:25;;;;;;;9.02;2.75;;;25.40;47.00;;;;;;6100891;28;80876;-72
2022/07/07 12:25:27;;;;;;;5.05;3.33;;;25.50;47.10;;;;;;6104599;28;80551;-71
2022/07/07 12:28:27;;;;;;;5.43;2.50;;;25.50;47.20;;;;;;6096445;28;80293;-79
2022/07/07 12:31:27;;;;;;;4.25;2.47;;;25.50;47.40;;;;;;6113235;28;81225;-73
2022/07/07 12:34:30;;;;;;;30.48;11.98;;;25.60;47.60;;;;;;6111109;28;80226;-73
2022/07/07 12:37:30;;;;;;;24.73;6.15;;;25.50;48.10;;;;;;6110292;28;82743;-74
2022/07/07 12:40:31;;;;;;;28.33;12.55;;;25.60;46.90;;;;;;6113025;28;82900;-73
2022/07/07 12:43:32;;;;;;;9.90;4.47;;;25.50;47.30;;;;;;6108781;28;83410;-74
2022/07/07 12:46:32;;;;;;;11.85;5.25;;;25.50;46.30;;;;;;6112286;28;82960;-73
2022/07/07 12:49:33;;;;;;;11.88;6.18;;;25.50;46.30;;;;;;6113784;28;80300;-77
2022/07/07 12:52:33;;;;;;;13.15;4.47;;;25.50;46.50;;;;;;6113497;28;80626;-72
2022/07/07 12:55:34;;;;;;;6.55;3.63;;;25.60;46.40;;;;;;6112627;28;80400;-70
2022/07/07 12:58:34;;;;;;;11.38;3.97;;;25.50;45.60;;;;;;6110670;28;80625;-69
2022/07/07 13:01:35;;;;;;;8.30;3.72;;;25.50;45.80;;;;;;6112676;28;80643;-67
2022/07/07 13:04:35;;;;;;;8.27;4.32;;;25.50;46.10;;;;;;6117968;28;80460;-62
2022/07/07 13:07:36;;;;;;;5.10;2.92;;;25.60;45.10;;;;;;6104320;28;80663;-69
2022/07/07 13:10:36;;;;;;;6.88;2.20;;;25.60;45.20;;;;;;6112910;28;80979;-66
2022/07/07 13:13:37;;;;;;;4.32;2.10;;;25.60;44.70;;;;;;6112505;28;81067;-68
2022/07/07 13:16:37;;;;;;;5.63;2.90;;;25.60;44.40;;;;;;6122214;28;82924;-68
2022/07/07 13:19:38;;;;;;;3.28;2.25;;;25.60;44.70;;;;;;6112000;28;80483;-68
2022/07/07 13:22:38;;;;;;;5.20;3.10;;;25.60;44.50;;;;;;6111903;28;80813;-66
2022/07/07 13:25:39;;;;;;;3.30;2.00;;;25.50;45.60;;;;;;6114398;28;80252;-66
2022/07/07 13:28:39;;;;;;;6.45;2.50;;;25.60;45.40;;;;;;6108302;28;80693;-67
2022/07/07 13:31:41;;;;;;;2.25;1.90;;;25.60;45.30;;;;;;6111071;28;80226;-69
2022/07/07 13:34:42;;;;;;;6.38;1.65;;;25.70;46.10;;;;;;6107208;28;81238;-68
2022/07/07 13:37:42;;;;;;;5.88;1.92;;;25.70;45.80;;;;;;6109125;28;80373;-68
2022/07/07 13:40:43;;;;;;;9.40;2.65;;;25.70;45.50;;;;;;6104225;28;80747;-68
2022/07/07 13:43:46;;;;;;;2.55;1.83;;;25.70;45.80;;;;;;6105296;28;80427;-68
2022/07/07 13:46:47;;;;;;;4.15;1.60;;;25.80;45.70;;;;;;6103659;28;81285;-68
2022/07/07 13:49:47;;;;;;;2.88;2.00;;;25.80;46.30;;;;;;6102132;28;80040;-67
2022/07/07 13:52:49;;;;;;;3.33;2.08;;;25.80;46.20;;;;;;6099500;28;80670;-67
2022/07/07 13:55:49;;;;;;;4.03;1.90;;;25.80;46.00;;;;;;6107520;28;80551;-71
2022/07/07 13:58:50;;;;;;;5.57;1.98;;;25.80;46.20;;;;;;6109640;28;81785;-67
2022/07/07 14:01:50;;;;;;;3.50;2.10;;;25.80;46.90;;;;;;6110974;28;80450;-68
2022/07/07 14:04:51;;;;;;;6.13;2.85;;;25.80;47.40;;;;;;6110717;28;80472;-67
2022/07/07 14:07:51;;;;;;;5.80;2.80;;;25.90;47.60;;;;;;6105980;28;80906;-67
2022/07/07 14:10:52;;;;;;;2.75;2.22;;;25.90;47.90;;;;;;6102326;28;81576;-69
2022/07/07 14:13:52;;;;;;;5.28;2.25;;;25.90;47.20;;;;;;6109331;28;81753;-68
2022/07/07 14:16:53;;;;;;;4.82;2.03;;;25.80;47.00;;;;;;6107554;28;81152;-69
2022/07/07 14:19:53;;;;;;;4.38;2.05;;;25.80;47.50;;;;;;6107865;28;80217;-67
2022/07/07 14:22:54;;;;;;;4.07;2.10;;;25.80;47.60;;;;;;6110411;28;80444;-70
2022/07/07 14:25:54;;;;;;;4.15;1.80;;;25.80;46.30;;;;;;6103877;28;81977;-70
2022/07/07 14:28:55;;;;;;;5.60;2.10;;;25.80;46.70;;;;;;6105183;28;80655;-69
2022/07/07 14:31:55;;;;;;;3.33;2.08;;;25.80;46.20;;;;;;6111565;28;80606;-75
2022/07/07 14:34:56;;;;;;;3.65;1.92;;;25.80;46.30;;;;;;6111580;28;81334;-75
2022/07/07 14:37:57;;;;;;;3.63;2.22;;;25.80;46.20;;;;;;6108663;28;81620;-67
2022/07/07 14:40:58;;;;;;;2.35;1.80;;;25.80;46.50;;;;;;6101921;28;80895;-66
2022/07/07 14:43:58;;;;;;;8.75;3.03;;;25.90;46.80;;;;;;6098564;28;80882;-66
2022/07/07 14:50:43;;;;;;;3.17;2.00;;;25.90;46.20;;;;;;6104375;28;80527;-63
2022/07/07 14:53:43;;;;;;;4.53;2.08;;;25.90;45.20;;;;;;6100267;28;80266;-64
2022/07/07 14:56:44;;;;;;;3.58;2.17;;;25.90;45.00;;;;;;6097530;28;81411;-62
2022/07/07 14:59:44;;;;;;;5.82;2.00;;;25.90;44.80;;;;;;6098643;28;81113;-63
2022/07/07 15:02:45;;;;;;;8.00;2.40;;;25.90;45.30;;;;;;6098571;28;80631;-63
2022/07/07 15:05:45;;;;;;;2.88;2.08;;;25.90;44.80;;;;;;6105929;28;80314;-67
2022/07/07 15:08:46;;;;;;;4.28;2.30;;;25.80;44.80;;;;;;6109560;28;81289;-66
2022/07/07 15:11:55;;;;;;;2.28;2.08;;;25.80;45.50;;;;;;6105688;28;80423;-65
2022/07/07 15:14:56;;;;;;;2.00;1.80;;;25.80;45.00;;;;;;6111706;28;80861;-65
2022/07/07 15:17:56;;;;;;;6.18;2.38;;;25.80;44.80;;;;;;6107645;28;81455;-66
2022/07/07 15:20:57;;;;;;;2.22;1.77;;;25.80;44.80;;;;;;6108271;28;80718;-66
2022/07/07 15:23:57;;;;;;;3.33;1.90;;;25.80;45.00;;;;;;6108254;28;80437;-71
2022/07/07 15:26:58;;;;;;;5.82;2.22;;;25.80;45.00;;;;;;6105851;28;81046;-68
2022/07/07 15:29:58;;;;;;;6.95;2.90;;;25.80;45.70;;;;;;6101909;28;80403;-74
2022/07/07 15:32:59;;;;;;;4.30;2.20;;;25.80;46.40;;;;;;6100375;28;81306;-71
2022/07/07 15:35:59;;;;;;;13.68;2.33;;;25.80;46.80;;;;;;6103739;28;80368;-66
2022/07/07 15:39:00;;;;;;;8.98;3.40;;;25.80;46.90;;;;;;6106160;28;81070;-69
2022/07/07 15:42:00;;;;;;;15.18;2.78;;;25.80;47.20;;;;;;6108888;28;81679;-68
2022/07/07 15:45:01;;;;;;;5.85;2.72;;;25.90;47.50;;;;;;6106346;28;80614;-69
2022/07/07 15:48:01;;;;;;;7.47;2.80;;;25.90;48.00;;;;;;6107745;28;81103;-68
2022/07/07 15:51:02;;;;;;;6.57;2.67;;;25.90;48.20;;;;;;6107327;28;80827;-70